Hanjin Sanfrancisco — 3FXR — position and weather

sailwx.info

Track history (hours):
 
Tides and Currents Weather Stations Pressure Air Temp Water Temp Dewpoint Dewpoint Depression Visibility Wind Speed Wind Dir Waves Ship Positions

Hanjin Sanfrancisco

Last reported at 2018-May-15 12:57 UTC. Time now 2018-May-22 02:32 UTC.
Position N 36°00' W 005°13'.

Length 289 m; draft 11.1 m.

Type: Cargo ship. MMSI: 351989000.

Date/timePositionNaut miles runAvg speedWind from/ knotsBaromVisibWave heightAir tempDewpointWater temp
2018-May-15 12:57N 36°00' W 005°13'512.4
2018-May-15 12:30N 35°59' W 005°20'713.1
2018-May-15 11:59N 35°57' W 005°28'16 9.7
2018-May-15 10:17N 35°55' W 005°48'3 9.5
2018-May-15 10:00N 35°55' W 005°51'1010.6
2018-May-15 09:03N 35°54' W 006°04'011.1
2018-May-15 09:00N 35°54' W 006°04'511.0
2018-May-15 08:31N 35°54' W 006°11'611.5
2018-May-15 08:00N 35°55' W 006°18'1011.9
2018-May-15 07:09N 35°57' W 006°31'212.1
2018-May-15 07:01N 35°57' W 006°33'13811.7
2018-May-14 19:15N 36°34' W 009°17'311.6
2018-May-14 18:59N 36°36' W 009°20'612.3
2018-May-14 18:30N 36°40' W 009°25'5312.2
2018-May-14 14:07N 37°31' W 009°45'112.6
2018-May-14 14:01N 37°32' W 009°45'5312.5
2018-May-14 09:45N 38°24' W 010°00'412.5
2018-May-14 09:24N 38°29' W 010°02'712.5
2018-May-14 08:50N 38°36' W 010°04'412.2
2018-May-14 08:30N 38°39' W 010°05'612.3
2018-May-14 08:00N 38°46' W 010°05'612.5
2018-May-14 07:30N 38°52' W 010°05'612.3
2018-May-14 07:00N 38°58' W 010°06'  
2018-May-11 13:09N 49°44' W 003°36'310.8
2018-May-11 12:53N 49°45' W 003°32'411.2
2018-May-11 12:30N 49°48' W 003°27'611.4
2018-May-11 12:01N 49°51' W 003°19'611.7
2018-May-11 11:30N 49°54' W 003°12'612.1
2018-May-11 11:00N 49°57' W 003°03'612.3
2018-May-11 10:31N 49°59' W 002°55'612.7
2018-May-11 10:00N 50°01' W 002°45'713.3
2018-May-11 09:30N 50°03' W 002°35'712.8
2018-May-11 08:57N 50°05' W 002°25'612.4
2018-May-11 08:27N 50°06' W 002°15'612.1
2018-May-11 07:59N 50°08' W 002°07'611.6
2018-May-11 07:31N 50°09' W 001°59'611.1
2018-May-11 07:00N 50°11' W 001°50'510.5
2018-May-11 06:30N 50°12' W 001°42'510.1
2018-May-11 06:00N 50°13' W 001°34'5 9.7
2018-May-11 05:30N 50°15' W 001°27'5 9.6
2018-May-11 04:59N 50°16' W 001°20'5 9.6
2018-May-11 04:30N 50°17' W 001°13'5 9.6
2018-May-11 04:00N 50°19' W 001°06'510.0
2018-May-11 03:30N 50°21' W 000°58'510.8
2018-May-11 03:00N 50°22' W 000°50'611.4
2018-May-11 02:30N 50°23' W 000°42'611.7
2018-May-11 02:00N 50°25' W 000°33'612.5
2018-May-11 01:30N 50°26' W 000°23'612.7
2018-May-11 01:00N 50°28' W 000°14'612.8
2018-May-11 00:30N 50°30' W 000°04'612.8
2018-May-11 00:00N 50°31' E 000°06'612.8
2018-May-10 23:31N 50°33' E 000°16'612.7
2018-May-10 23:00N 50°35' E 000°25'612.5
2018-May-10 22:30N 50°37' E 000°35'612.2
2018-May-10 22:00N 50°40' E 000°43'611.8
2018-May-10 21:30N 50°43' E 000°51'611.5
2018-May-10 21:00N 50°46' E 000°58'611.1
2018-May-10 20:30N 50°50' E 001°06'710.7
2018-May-10 19:50N 50°53' E 001°15'410.6
2018-May-10 19:30N 50°56' E 001°19'511.1
2018-May-10 19:00N 50°60' E 001°25'611.9
2018-May-10 18:30N 51°04' E 001°31'612.3
2018-May-10 18:00N 51°09' E 001°38'612.6
2018-May-10 17:30N 51°13' E 001°45'713.4
2018-May-10 17:00N 51°19' E 001°50'713.7
2018-May-10 16:31N 51°25' E 001°54'713.6
2018-May-10 16:00N 51°30' E 002°02'713.2
2018-May-10 15:30N 51°35' E 002°09'713.0
2018-May-10 15:00N 51°40' E 002°16'5011.8
2018-May-10 10:48N 52°18' E 003°07'811.0
2018-May-10 10:06N 52°24' E 003°15'111.1
2018-May-10 10:00N 52°25' E 003°16'3311.6
2018-May-10 07:10N 52°51' E 003°49'212.4
2018-May-10 06:59N 52°53' E 003°51'1912.4
2018-May-10 05:26N 53°06' E 004°15'512.5
2018-May-10 05:00N 53°09' E 004°22'612.2
2018-May-10 04:30N 53°14' E 004°27'612.2
2018-May-10 04:00N 53°20' E 004°31'611.7
2018-May-10 03:30N 53°26' E 004°34'611.6
2018-May-10 02:58N 53°32' E 004°37'2311.6
2018-May-10 00:58N 53°53' E 004°51'1512.1
2018-May-09 23:44N 54°07' E 005°00'312.2
2018-May-09 23:29N 54°10' E 005°03'1112.4
2018-May-09 22:37N 54°20' E 005°11'13110.8
2018-May-09 10:33N 56°18' E 006°48'111.0
2018-May-09 10:29N 56°19' E 006°49'611.2
2018-May-09 09:59N 56°24' E 006°54'511.3
2018-May-09 09:30N 56°28' E 006°59'511.1
2018-May-09 09:00N 56°33' E 007°03'611.3
2018-May-09 08:30N 56°38' E 007°08'6111.1
2018-May-09 03:00N 57°23' E 008°25'2311.7
2018-May-09 01:01N 57°34' E 009°03'111.5
2018-May-09 00:57N 57°34' E 009°04'511.6
2018-May-09 00:30N 57°37' E 009°13'611.4
2018-May-08 23:59N 57°39' E 009°22'711.6
2018-May-08 23:21N 57°43' E 009°35'411.6
2018-May-08 23:00N 57°45' E 009°41'611.5
2018-May-08 22:30N 57°47' E 009°51'612.1
2018-May-08 22:00N 57°48' E 010°02'611.7
2018-May-08 21:30N 57°48' E 010°13'611.7
2018-May-08 20:59N 57°48' E 010°24'612.0
2018-May-08 20:30N 57°48' E 010°35'611.4
2018-May-08 20:01N 57°48' E 010°46'5 9.6
2018-May-08 19:30N 57°43' E 010°43'3 5.6
2018-May-08 18:57N 57°42' E 010°37'0 0.0
2018-May-08 18:30N 57°42' E 010°37'0 0.0
2018-May-08 18:00N 57°42' E 010°37'0 0.0
2018-May-08 17:24N 57°42' E 010°37'0 0.0
2018-May-08 16:57N 57°42' E 010°37'0 0.0
2018-May-08 16:24N 57°42' E 010°37'0 0.0
2018-May-08 15:57N 57°42' E 010°37'0 0.0
2018-May-08 15:30N 57°42' E 010°37'0 0.0
2018-May-08 15:00N 57°42' E 010°37'0 0.0
2018-May-08 14:27N 57°42' E 010°37'0 0.1
2018-May-08 13:57N 57°42' E 010°37'0 0.7
2018-May-08 13:30N 57°42' E 010°38'4 9.0
2018-May-08 13:00N 57°38' E 010°41'4 7.8
2018-May-08 12:30N 57°35' E 010°45'4 7.7
2018-May-08 12:00N 57°31' E 010°45'4 8.1
2018-May-08 11:30N 57°27' E 010°44'4 8.1
2018-May-08 11:00N 57°23' E 010°44'4 8.1
2018-May-08 10:30N 57°19' E 010°43'4 8.3
2018-May-08 10:00N 57°15' E 010°43'4 8.1
2018-May-08 09:30N 57°11' E 010°45'5 9.9
2018-May-08 09:00N 57°06' E 010°48'611.0
2018-May-08 08:30N 57°01' E 010°51'610.6
2018-May-08 07:53N 56°54' E 010°51'6 8.3
2018-May-08 07:10N 56°51' E 010°42'3 9.3
2018-May-08 06:50N 56°52' E 010°36'310.2
2018-May-08 06:30N 56°54' E 010°32'5 9.7
2018-May-08 06:01N 56°57' E 010°25'510.8
2018-May-08 05:30N 56°59' E 010°16'611.0
2018-May-08 05:00N 57°02' E 010°07'510.7
2018-May-08 04:30N 57°05' E 009°59'1 2.2
2018-May-08 04:00N 57°04' E 009°58'0 0.0
2018-May-08 03:30N 57°04' E 009°58'0 0.0
2018-May-08 03:00N 57°04' E 009°58'0 0.0
2018-May-08 02:30N 57°04' E 009°58'0 0.0
2018-May-08 02:00N 57°04' E 009°58'0 0.0
2018-May-08 01:30N 57°04' E 009°58'0 0.0
2018-May-08 01:00N 57°04' E 009°58'0 0.0
2018-May-08 00:30N 57°04' E 009°58'0 0.0
2018-May-07 23:54N 57°04' E 009°58'0 0.0
2018-May-07 23:30N 57°04' E 009°58'0 0.0
2018-May-07 23:00N 57°04' E 009°58'0 0.0
2018-May-07 22:30N 57°04' E 009°58'0 0.0
2018-May-07 22:00N 57°04' E 009°58'0 0.0
2018-May-07 21:30N 57°04' E 009°58'0 0.0
2018-May-07 21:00N 57°04' E 009°58'0 0.0
2018-May-07 20:30N 57°04' E 009°58'0 0.0
2018-May-07 20:00N 57°04' E 009°58'0 0.0
2018-May-07 19:30N 57°04' E 009°58'0 0.0
2018-May-07 19:00N 57°04' E 009°58'0 0.0
2018-May-07 18:30N 57°04' E 009°58'0 0.0
2018-May-07 18:00N 57°04' E 009°58'0 0.0
2018-May-07 17:30N 57°04' E 009°58'0 0.0
2018-May-07 17:00N 57°04' E 009°58'0 0.0
2018-May-07 16:30N 57°04' E 009°58'0 0.0
2018-May-07 16:00N 57°04' E 009°58'0 0.0
2018-May-07 15:30N 57°04' E 009°58'0 0.0
2018-May-07 15:00N 57°04' E 009°58'0 0.0
2018-May-07 14:30N 57°04' E 009°58'0 0.0
2018-May-07 14:00N 57°04' E 009°58'0 0.0
2018-May-07 13:30N 57°04' E 009°58'0 0.0
2018-May-07 12:57N 57°04' E 009°58'0 0.0
2018-May-07 12:27N 57°04' E 009°58'0 0.0
2018-May-07 12:00N 57°04' E 009°58'0 0.0
2018-May-07 11:30N 57°04' E 009°58'0 0.0
2018-May-07 11:00N 57°04' E 009°58'0 0.0
2018-May-07 10:30N 57°04' E 009°58'0 0.0
2018-May-07 09:57N 57°04' E 009°58'0 0.0
2018-May-07 09:30N 57°04' E 009°58'0 0.0
2018-May-07 09:00N 57°04' E 009°58'0 0.0
2018-May-07 08:30N 57°04' E 009°58'0 0.0
2018-May-07 08:00N 57°04' E 009°58'0 0.0
2018-May-07 07:30N 57°04' E 009°58'0 0.0
2018-May-07 07:00N 57°04' E 009°58'0 0.0
2018-May-07 06:30N 57°04' E 009°58'0 0.0
2018-May-07 06:00N 57°04' E 009°58'0 0.0
2018-May-07 05:30N 57°04' E 009°58'0 0.0
2018-May-07 05:00N 57°04' E 009°58'0 0.0
2018-May-07 04:30N 57°04' E 009°58'0 0.0
2018-May-07 04:00N 57°04' E 009°58'0 0.0
2018-May-07 03:30N 57°04' E 009°58'0 0.0
2018-May-07 03:00N 57°04' E 009°58'0 0.0
2018-May-07 02:30N 57°04' E 009°58'0 0.0
2018-May-07 02:00N 57°04' E 009°58'0 0.0
2018-May-07 01:30N 57°04' E 009°58'0 0.0
2018-May-07 01:00N 57°04' E 009°58'0 0.0
2018-May-07 00:30N 57°04' E 009°58'0 0.0
2018-May-07 00:00N 57°04' E 009°58'0 0.0
2018-May-06 23:30N 57°04' E 009°58'0 0.0
2018-May-06 23:00N 57°04' E 009°58'0 0.0
2018-May-06 22:30N 57°04' E 009°58'0 0.0
2018-May-06 22:00N 57°04' E 009°58'0 0.0
2018-May-06 21:30N 57°04' E 009°58'0 0.0
2018-May-06 21:00N 57°04' E 009°58'0 0.0
2018-May-06 20:30N 57°04' E 009°58'0 0.0
2018-May-06 20:00N 57°04' E 009°58'0 0.0
2018-May-06 19:30N 57°04' E 009°58'0 0.0
2018-May-06 19:00N 57°04' E 009°58'0 0.0
2018-May-06 18:30N 57°04' E 009°58'0 0.0
2018-May-06 18:00N 57°04' E 009°58'0 0.0
2018-May-06 17:30N 57°04' E 009°58'0 0.0
2018-May-06 17:00N 57°04' E 009°58'0 0.0
2018-May-06 16:30N 57°04' E 009°58'0 0.0
2018-May-06 16:00N 57°04' E 009°58'0 0.0
2018-May-06 15:30N 57°04' E 009°58'0 0.0
2018-May-06 15:00N 57°04' E 009°58'0 0.0
2018-May-06 14:30N 57°04' E 009°58'0 0.0
2018-May-06 14:00N 57°04' E 009°58'0 0.0
2018-May-06 13:30N 57°04' E 009°58'0 0.0
2018-May-06 13:00N 57°04' E 009°58'0 0.0
2018-May-06 12:30N 57°04' E 009°58'0 0.0
2018-May-06 12:00N 57°04' E 009°58'0 0.0
2018-May-06 11:30N 57°04' E 009°58'0 0.0
2018-May-06 10:57N 57°04' E 009°58'0 0.0
2018-May-06 10:30N 57°04' E 009°58'0 0.0
2018-May-06 10:00N 57°04' E 009°58'0 0.0
2018-May-06 09:27N 57°04' E 009°58'0 0.0
2018-May-06 09:00N 57°04' E 009°58'0 0.0
2018-May-06 08:30N 57°04' E 009°58'0 0.0
2018-May-06 08:00N 57°04' E 009°58'0 0.0
2018-May-06 07:30N 57°04' E 009°58'0 0.0
2018-May-06 07:00N 57°04' E 009°58'0 0.0
2018-May-06 06:30N 57°04' E 009°58'0 0.0
2018-May-06 06:00N 57°04' E 009°58'0 0.0
2018-May-06 05:30N 57°04' E 009°58'0 0.0
2018-May-06 05:00N 57°04' E 009°58'0 0.0
2018-May-06 04:30N 57°04' E 009°58'0 0.0
2018-May-06 04:00N 57°04' E 009°58'0 0.0
2018-May-06 03:30N 57°04' E 009°58'0 0.0
2018-May-06 03:00N 57°04' E 009°58'0 0.4
2018-May-06 02:30N 57°04' E 009°58'3 5.6
2018-May-06 02:00N 57°03' E 010°03'611.4
2018-May-06 01:30N 56°60' E 010°11'5 9.9
2018-May-06 00:59N 56°58' E 010°20'610.3
2018-May-06 00:25N 56°55' E 010°29'12 8.1
2018-May-05 22:56N 56°57' E 010°51'1911.9
2018-May-05 21:21N 57°15' E 010°42'411.2
2018-May-05 20:59N 57°20' E 010°42'611.3
2018-May-05 20:30N 57°25' E 010°43'611.6
2018-May-05 20:00N 57°31' E 010°44'611.7
2018-May-05 19:30N 57°37' E 010°44'611.5
2018-May-05 19:00N 57°42' E 010°45'510.3
2018-May-05 18:31N 57°47' E 010°41'713.5
2018-May-05 18:00N 57°48' E 010°28'612.8
2018-May-05 17:30N 57°47' E 010°16'812.3
2018-May-05 16:51N 57°47' E 010°01'512.9
2018-May-05 16:28N 57°47' E 009°52'612.7
2018-May-05 16:00N 57°44' E 009°42'712.6
2018-May-05 15:29N 57°42' E 009°31'612.6
2018-May-05 15:00N 57°39' E 009°21'712.9
2018-May-05 14:26N 57°36' E 009°09'613.1
2018-May-05 13:57N 57°33' E 008°58'612.9
2018-May-05 13:28N 57°30' E 008°48'  
Track history (hours):
 
Tides and Currents Weather Stations Pressure Air Temp Water Temp Dewpoint Dewpoint Depression Visibility Wind Speed Wind Dir Waves Ship Positions

Hanjin Sanfrancisco

Last reported at 2018-May-15 12:57 UTC. Time now 2018-May-22 02:32 UTC.
Position N 36°00' W 005°13'.

Length 289 m; draft 11.1 m.

Type: Cargo ship. MMSI: 351989000.

Date/timePositionNaut miles runAvg speedWind from/ knotsBaromVisibWave heightAir tempDewpointWater temp
2018-May-15 12:57N 36°00' W 005°13'512.4
2018-May-15 12:30N 35°59' W 005°20'713.1
2018-May-15 11:59N 35°57' W 005°28'16 9.7
2018-May-15 10:17N 35°55' W 005°48'3 9.5
2018-May-15 10:00N 35°55' W 005°51'1010.6
2018-May-15 09:03N 35°54' W 006°04'011.1
2018-May-15 09:00N 35°54' W 006°04'511.0
2018-May-15 08:31N 35°54' W 006°11'611.5
2018-May-15 08:00N 35°55' W 006°18'1011.9
2018-May-15 07:09N 35°57' W 006°31'212.1
2018-May-15 07:01N 35°57' W 006°33'13811.7
2018-May-14 19:15N 36°34' W 009°17'311.6
2018-May-14 18:59N 36°36' W 009°20'612.3
2018-May-14 18:30N 36°40' W 009°25'5312.2
2018-May-14 14:07N 37°31' W 009°45'112.6
2018-May-14 14:01N 37°32' W 009°45'5312.5
2018-May-14 09:45N 38°24' W 010°00'412.5
2018-May-14 09:24N 38°29' W 010°02'712.5
2018-May-14 08:50N 38°36' W 010°04'412.2
2018-May-14 08:30N 38°39' W 010°05'612.3
2018-May-14 08:00N 38°46' W 010°05'612.5
2018-May-14 07:30N 38°52' W 010°05'612.3
2018-May-14 07:00N 38°58' W 010°06'  
2018-May-11 13:09N 49°44' W 003°36'310.8
2018-May-11 12:53N 49°45' W 003°32'411.2
2018-May-11 12:30N 49°48' W 003°27'611.4
2018-May-11 12:01N 49°51' W 003°19'611.7
2018-May-11 11:30N 49°54' W 003°12'612.1
2018-May-11 11:00N 49°57' W 003°03'612.3
2018-May-11 10:31N 49°59' W 002°55'612.7
2018-May-11 10:00N 50°01' W 002°45'713.3
2018-May-11 09:30N 50°03' W 002°35'712.8
2018-May-11 08:57N 50°05' W 002°25'612.4
2018-May-11 08:27N 50°06' W 002°15'612.1
2018-May-11 07:59N 50°08' W 002°07'611.6
2018-May-11 07:31N 50°09' W 001°59'611.1
2018-May-11 07:00N 50°11' W 001°50'510.5
2018-May-11 06:30N 50°12' W 001°42'510.1
2018-May-11 06:00N 50°13' W 001°34'5 9.7
2018-May-11 05:30N 50°15' W 001°27'5 9.6
2018-May-11 04:59N 50°16' W 001°20'5 9.6
2018-May-11 04:30N 50°17' W 001°13'5 9.6
2018-May-11 04:00N 50°19' W 001°06'510.0
2018-May-11 03:30N 50°21' W 000°58'510.8
2018-May-11 03:00N 50°22' W 000°50'611.4
2018-May-11 02:30N 50°23' W 000°42'611.7
2018-May-11 02:00N 50°25' W 000°33'612.5
2018-May-11 01:30N 50°26' W 000°23'612.7
2018-May-11 01:00N 50°28' W 000°14'612.8
2018-May-11 00:30N 50°30' W 000°04'612.8
2018-May-11 00:00N 50°31' E 000°06'612.8
2018-May-10 23:31N 50°33' E 000°16'612.7
2018-May-10 23:00N 50°35' E 000°25'612.5
2018-May-10 22:30N 50°37' E 000°35'612.2
2018-May-10 22:00N 50°40' E 000°43'611.8
2018-May-10 21:30N 50°43' E 000°51'611.5
2018-May-10 21:00N 50°46' E 000°58'611.1
2018-May-10 20:30N 50°50' E 001°06'710.7
2018-May-10 19:50N 50°53' E 001°15'410.6
2018-May-10 19:30N 50°56' E 001°19'511.1
2018-May-10 19:00N 50°60' E 001°25'611.9
2018-May-10 18:30N 51°04' E 001°31'612.3
2018-May-10 18:00N 51°09' E 001°38'612.6
2018-May-10 17:30N 51°13' E 001°45'713.4
2018-May-10 17:00N 51°19' E 001°50'713.7
2018-May-10 16:31N 51°25' E 001°54'713.6
2018-May-10 16:00N 51°30' E 002°02'713.2
2018-May-10 15:30N 51°35' E 002°09'713.0
2018-May-10 15:00N 51°40' E 002°16'5011.8
2018-May-10 10:48N 52°18' E 003°07'811.0
2018-May-10 10:06N 52°24' E 003°15'111.1
2018-May-10 10:00N 52°25' E 003°16'3311.6
2018-May-10 07:10N 52°51' E 003°49'212.4
2018-May-10 06:59N 52°53' E 003°51'1912.4
2018-May-10 05:26N 53°06' E 004°15'512.5
2018-May-10 05:00N 53°09' E 004°22'612.2
2018-May-10 04:30N 53°14' E 004°27'612.2
2018-May-10 04:00N 53°20' E 004°31'611.7
2018-May-10 03:30N 53°26' E 004°34'611.6
2018-May-10 02:58N 53°32' E 004°37'2311.6
2018-May-10 00:58N 53°53' E 004°51'1512.1
2018-May-09 23:44N 54°07' E 005°00'312.2
2018-May-09 23:29N 54°10' E 005°03'1112.4
2018-May-09 22:37N 54°20' E 005°11'13110.8
2018-May-09 10:33N 56°18' E 006°48'111.0
2018-May-09 10:29N 56°19' E 006°49'611.2
2018-May-09 09:59N 56°24' E 006°54'511.3
2018-May-09 09:30N 56°28' E 006°59'511.1
2018-May-09 09:00N 56°33' E 007°03'611.3
2018-May-09 08:30N 56°38' E 007°08'6111.1
2018-May-09 03:00N 57°23' E 008°25'2311.7
2018-May-09 01:01N 57°34' E 009°03'111.5
2018-May-09 00:57N 57°34' E 009°04'511.6
2018-May-09 00:30N 57°37' E 009°13'611.4
2018-May-08 23:59N 57°39' E 009°22'711.6
2018-May-08 23:21N 57°43' E 009°35'411.6
2018-May-08 23:00N 57°45' E 009°41'611.5
2018-May-08 22:30N 57°47' E 009°51'612.1
2018-May-08 22:00N 57°48' E 010°02'611.7
2018-May-08 21:30N 57°48' E 010°13'611.7
2018-May-08 20:59N 57°48' E 010°24'612.0
2018-May-08 20:30N 57°48' E 010°35'611.4
2018-May-08 20:01N 57°48' E 010°46'5 9.6
2018-May-08 19:30N 57°43' E 010°43'3 5.6
2018-May-08 18:57N 57°42' E 010°37'0 0.0
2018-May-08 18:30N 57°42' E 010°37'0 0.0
2018-May-08 18:00N 57°42' E 010°37'0 0.0
2018-May-08 17:24N 57°42' E 010°37'0 0.0
2018-May-08 16:57N 57°42' E 010°37'0 0.0
2018-May-08 16:24N 57°42' E 010°37'0 0.0
2018-May-08 15:57N 57°42' E 010°37'0 0.0
2018-May-08 15:30N 57°42' E 010°37'0 0.0
2018-May-08 15:00N 57°42' E 010°37'0 0.0
2018-May-08 14:27N 57°42' E 010°37'0 0.1
2018-May-08 13:57N 57°42' E 010°37'0 0.7
2018-May-08 13:30N 57°42' E 010°38'4 9.0
2018-May-08 13:00N 57°38' E 010°41'4 7.8
2018-May-08 12:30N 57°35' E 010°45'4 7.7
2018-May-08 12:00N 57°31' E 010°45'4 8.1
2018-May-08 11:30N 57°27' E 010°44'4 8.1
2018-May-08 11:00N 57°23' E 010°44'4 8.1
2018-May-08 10:30N 57°19' E 010°43'4 8.3
2018-May-08 10:00N 57°15' E 010°43'4 8.1
2018-May-08 09:30N 57°11' E 010°45'5 9.9
2018-May-08 09:00N 57°06' E 010°48'611.0
2018-May-08 08:30N 57°01' E 010°51'610.6
2018-May-08 07:53N 56°54' E 010°51'6 8.3
2018-May-08 07:10N 56°51' E 010°42'3 9.3
2018-May-08 06:50N 56°52' E 010°36'310.2
2018-May-08 06:30N 56°54' E 010°32'5 9.7
2018-May-08 06:01N 56°57' E 010°25'510.8
2018-May-08 05:30N 56°59' E 010°16'611.0
2018-May-08 05:00N 57°02' E 010°07'510.7
2018-May-08 04:30N 57°05' E 009°59'1 2.2
2018-May-08 04:00N 57°04' E 009°58'0 0.0
2018-May-08 03:30N 57°04' E 009°58'0 0.0
2018-May-08 03:00N 57°04' E 009°58'0 0.0
2018-May-08 02:30N 57°04' E 009°58'0 0.0
2018-May-08 02:00N 57°04' E 009°58'0 0.0
2018-May-08 01:30N 57°04' E 009°58'0 0.0
2018-May-08 01:00N 57°04' E 009°58'0 0.0
2018-May-08 00:30N 57°04' E 009°58'0 0.0
2018-May-07 23:54N 57°04' E 009°58'0 0.0
2018-May-07 23:30N 57°04' E 009°58'0 0.0
2018-May-07 23:00N 57°04' E 009°58'0 0.0
2018-May-07 22:30N 57°04' E 009°58'0 0.0
2018-May-07 22:00N 57°04' E 009°58'0 0.0
2018-May-07 21:30N 57°04' E 009°58'0 0.0
2018-May-07 21:00N 57°04' E 009°58'0 0.0
2018-May-07 20:30N 57°04' E 009°58'0 0.0
2018-May-07 20:00N 57°04' E 009°58'0 0.0
2018-May-07 19:30N 57°04' E 009°58'0 0.0
2018-May-07 19:00N 57°04' E 009°58'0 0.0
2018-May-07 18:30N 57°04' E 009°58'0 0.0
2018-May-07 18:00N 57°04' E 009°58'0 0.0
2018-May-07 17:30N 57°04' E 009°58'0 0.0
2018-May-07 17:00N 57°04' E 009°58'0 0.0
2018-May-07 16:30N 57°04' E 009°58'0 0.0
2018-May-07 16:00N 57°04' E 009°58'0 0.0
2018-May-07 15:30N 57°04' E 009°58'0 0.0
2018-May-07 15:00N 57°04' E 009°58'0 0.0
2018-May-07 14:30N 57°04' E 009°58'0 0.0
2018-May-07 14:00N 57°04' E 009°58'0 0.0
2018-May-07 13:30N 57°04' E 009°58'0 0.0
2018-May-07 12:57N 57°04' E 009°58'0 0.0
2018-May-07 12:27N 57°04' E 009°58'0 0.0
2018-May-07 12:00N 57°04' E 009°58'0 0.0
2018-May-07 11:30N 57°04' E 009°58'0 0.0
2018-May-07 11:00N 57°04' E 009°58'0 0.0
2018-May-07 10:30N 57°04' E 009°58'0 0.0
2018-May-07 09:57N 57°04' E 009°58'0 0.0
2018-May-07 09:30N 57°04' E 009°58'0 0.0
2018-May-07 09:00N 57°04' E 009°58'0 0.0
2018-May-07 08:30N 57°04' E 009°58'0 0.0
2018-May-07 08:00N 57°04' E 009°58'0 0.0
2018-May-07 07:30N 57°04' E 009°58'0 0.0
2018-May-07 07:00N 57°04' E 009°58'0 0.0
2018-May-07 06:30N 57°04' E 009°58'0 0.0
2018-May-07 06:00N 57°04' E 009°58'0 0.0
2018-May-07 05:30N 57°04' E 009°58'0 0.0
2018-May-07 05:00N 57°04' E 009°58'0 0.0
2018-May-07 04:30N 57°04' E 009°58'0 0.0
2018-May-07 04:00N 57°04' E 009°58'0 0.0
2018-May-07 03:30N 57°04' E 009°58'0 0.0
2018-May-07 03:00N 57°04' E 009°58'0 0.0
2018-May-07 02:30N 57°04' E 009°58'0 0.0
2018-May-07 02:00N 57°04' E 009°58'0 0.0
2018-May-07 01:30N 57°04' E 009°58'0 0.0
2018-May-07 01:00N 57°04' E 009°58'0 0.0
2018-May-07 00:30N 57°04' E 009°58'0 0.0
2018-May-07 00:00N 57°04' E 009°58'0 0.0
2018-May-06 23:30N 57°04' E 009°58'0 0.0
2018-May-06 23:00N 57°04' E 009°58'0 0.0
2018-May-06 22:30N 57°04' E 009°58'0 0.0
2018-May-06 22:00N 57°04' E 009°58'0 0.0
2018-May-06 21:30N 57°04' E 009°58'0 0.0
2018-May-06 21:00N 57°04' E 009°58'0 0.0
2018-May-06 20:30N 57°04' E 009°58'0 0.0
2018-May-06 20:00N 57°04' E 009°58'0 0.0
2018-May-06 19:30N 57°04' E 009°58'0 0.0
2018-May-06 19:00N 57°04' E 009°58'0 0.0
2018-May-06 18:30N 57°04' E 009°58'0 0.0
2018-May-06 18:00N 57°04' E 009°58'0 0.0
2018-May-06 17:30N 57°04' E 009°58'0 0.0
2018-May-06 17:00N 57°04' E 009°58'0 0.0
2018-May-06 16:30N 57°04' E 009°58'0 0.0
2018-May-06 16:00N 57°04' E 009°58'0 0.0
2018-May-06 15:30N 57°04' E 009°58'0 0.0
2018-May-06 15:00N 57°04' E 009°58'0 0.0
2018-May-06 14:30N 57°04' E 009°58'0 0.0
2018-May-06 14:00N 57°04' E 009°58'0 0.0
2018-May-06 13:30N 57°04' E 009°58'0 0.0
2018-May-06 13:00N 57°04' E 009°58'0 0.0
2018-May-06 12:30N 57°04' E 009°58'0 0.0
2018-May-06 12:00N 57°04' E 009°58'0 0.0
2018-May-06 11:30N 57°04' E 009°58'0 0.0
2018-May-06 10:57N 57°04' E 009°58'0 0.0
2018-May-06 10:30N 57°04' E 009°58'0 0.0
2018-May-06 10:00N 57°04' E 009°58'0 0.0
2018-May-06 09:27N 57°04' E 009°58'0 0.0
2018-May-06 09:00N 57°04' E 009°58'0 0.0
2018-May-06 08:30N 57°04' E 009°58'0 0.0
2018-May-06 08:00N 57°04' E 009°58'0 0.0
2018-May-06 07:30N 57°04' E 009°58'0 0.0
2018-May-06 07:00N 57°04' E 009°58'0 0.0
2018-May-06 06:30N 57°04' E 009°58'0 0.0
2018-May-06 06:00N 57°04' E 009°58'0 0.0
2018-May-06 05:30N 57°04' E 009°58'0 0.0
2018-May-06 05:00N 57°04' E 009°58'0 0.0
2018-May-06 04:30N 57°04' E 009°58'0 0.0
2018-May-06 04:00N 57°04' E 009°58'0 0.0
2018-May-06 03:30N 57°04' E 009°58'0 0.0
2018-May-06 03:00N 57°04' E 009°58'0 0.4
2018-May-06 02:30N 57°04' E 009°58'3 5.6
2018-May-06 02:00N 57°03' E 010°03'611.4
2018-May-06 01:30N 56°60' E 010°11'5 9.9
2018-May-06 00:59N 56°58' E 010°20'610.3
2018-May-06 00:25N 56°55' E 010°29'12 8.1
2018-May-05 22:56N 56°57' E 010°51'1911.9
2018-May-05 21:21N 57°15' E 010°42'411.2
2018-May-05 20:59N 57°20' E 010°42'611.3
2018-May-05 20:30N 57°25' E 010°43'611.6
2018-May-05 20:00N 57°31' E 010°44'611.7
2018-May-05 19:30N 57°37' E 010°44'611.5
2018-May-05 19:00N 57°42' E 010°45'510.3
2018-May-05 18:31N 57°47' E 010°41'713.5
2018-May-05 18:00N 57°48' E 010°28'612.8
2018-May-05 17:30N 57°47' E 010°16'812.3
2018-May-05 16:51N 57°47' E 010°01'512.9
2018-May-05 16:28N 57°47' E 009°52'612.7
2018-May-05 16:00N 57°44' E 009°42'712.6
2018-May-05 15:29N 57°42' E 009°31'612.6
2018-May-05 15:00N 57°39' E 009°21'712.9
2018-May-05 14:26N 57°36' E 009°09'613.1
2018-May-05 13:57N 57°33' E 008°58'612.9
2018-May-05 13:28N 57°30' E 008°48'  

Dump ship's entire track history